createdAt,value
2022-08-09T00:00:11.881Z,73.42
2022-08-09T00:02:48.958Z,73.55
2022-08-09T00:06:17.559Z,74.29
2022-08-09T00:08:11.383Z,74.44
2022-08-09T00:10:55.392Z,74.51
2022-08-09T00:13:24.788Z,74.70
2022-08-09T00:16:00.168Z,75.14
2022-08-09T00:18:34.764Z,75.42
2022-08-09T00:21:05.016Z,75.42
2022-08-09T00:23:55.117Z,75.62
2022-08-09T00:26:19.276Z,75.61
2022-08-09T00:28:57.143Z,76.25
2022-08-09T00:31:58.802Z,76.16
2022-08-09T00:34:12.085Z,76.79
2022-08-09T00:36:41.546Z,77.01
2022-08-09T00:39:16.807Z,77.14
2022-08-09T00:44:16.318Z,77.09
2022-08-09T00:44:42.531Z,77.35
2022-08-09T00:47:15.334Z,77.39
2022-08-09T00:49:52.649Z,77.57
2022-08-09T00:52:30.700Z,78.11
2022-08-09T00:55:02.305Z,78.45
2022-08-09T00:57:34.018Z,78.55
2022-08-09T01:00:20.668Z,78.88
2022-08-09T01:03:02.503Z,78.96
2022-08-09T01:05:50.980Z,79.33
2022-08-09T01:08:27.281Z,79.14
2022-08-09T01:10:53.825Z,79.42
2022-08-09T01:13:53.362Z,79.59
2022-08-09T01:16:25.817Z,79.83
2022-08-09T01:19:04.522Z,79.52
2022-08-09T01:21:45.118Z,79.64
2022-08-09T01:24:59.308Z,80.06
2022-08-09T01:27:29.159Z,80.59
2022-08-09T01:30:00.760Z,80.56
2022-08-09T01:32:33.850Z,80.80
2022-08-09T01:35:28.294Z,80.85
2022-08-09T01:38:09.337Z,81.30
2022-08-09T01:40:42.957Z,81.25
2022-08-09T01:43:10.925Z,81.91
2022-08-09T01:45:46.258Z,81.94
2022-08-09T01:48:19.797Z,82.20
2022-08-09T01:50:58.660Z,82.49
2022-08-09T01:53:29.040Z,82.83
2022-08-09T01:56:09.527Z,82.88
2022-08-09T01:58:37.767Z,82.68
2022-08-09T02:01:07.101Z,83.13
2022-08-09T02:03:37.088Z,83.25
2022-08-09T02:06:07.237Z,83.47
2022-08-09T02:08:57.160Z,83.52
2022-08-09T02:11:40.364Z,83.68
2022-08-09T02:14:14.968Z,84.19
2022-08-09T02:16:59.220Z,84.35
2022-08-09T02:19:38.762Z,84.15
2022-08-09T02:22:38.418Z,84.18
2022-08-09T02:25:15.017Z,84.39
2022-08-09T02:28:00.199Z,84.54
2022-08-09T02:30:37.269Z,84.91
2022-08-09T02:33:08.020Z,84.80
2022-08-09T02:36:01.382Z,85.04
2022-08-09T02:38:32.333Z,85.53
2022-08-09T02:41:08.439Z,85.46
2022-08-09T02:43:47.705Z,85.79
2022-08-09T02:46:24.347Z,86.10
2022-08-09T02:48:52.958Z,86.43
2022-08-09T02:51:24.165Z,86.45
2022-08-09T02:53:59.698Z,86.38
2022-08-09T02:56:30.498Z,86.93
2022-08-09T02:58:58.897Z,87.05
2022-08-09T03:01:29.496Z,87.08
2022-08-09T03:04:19.196Z,87.13
2022-08-09T03:06:49.016Z,87.14
2022-08-09T03:09:17.969Z,87.44
2022-08-09T03:12:05.561Z,87.87
2022-08-09T03:14:32.871Z,87.67
2022-08-09T03:17:02.112Z,88.05
2022-08-09T03:19:58.503Z,88.45
2022-08-09T03:22:30.869Z,88.33
2022-08-09T03:25:27.036Z,88.72
2022-08-09T03:27:51.831Z,88.89
2022-08-09T03:30:29.350Z,88.57
2022-08-09T03:32:59.367Z,88.64
2022-08-09T03:36:11.160Z,88.37
2022-08-09T03:38:16.051Z,89.00
2022-08-09T03:40:55.666Z,88.98
2022-08-09T03:43:22.174Z,88.86
2022-08-09T03:46:04.919Z,89.02
2022-08-09T03:48:37.546Z,89.11
2022-08-09T03:51:57.037Z,89.38
2022-08-09T03:54:06.175Z,89.25
2022-08-09T03:56:41.389Z,89.40
2022-08-09T03:59:13.546Z,89.31
2022-08-09T04:01:44.349Z,89.74
2022-08-09T04:04:14.821Z,89.86
2022-08-09T04:06:44.079Z,89.80
2022-08-09T04:09:48.004Z,90.32
2022-08-09T04:12:30.082Z,90.43
2022-08-09T04:15:01.403Z,90.47
2022-08-09T04:17:29.840Z,90.78
2022-08-09T04:19:56.546Z,91.06
2022-08-09T04:22:23.581Z,91.23
2022-08-09T04:24:50.321Z,91.14
2022-08-09T04:27:17.487Z,91.25
2022-08-09T04:29:50.195Z,91.34
2022-08-09T04:32:17.064Z,91.52
2022-08-09T04:34:58.079Z,91.55
2022-08-09T04:37:42.236Z,91.59
2022-08-09T04:40:19.043Z,91.54
2022-08-09T04:42:45.978Z,91.68
2022-08-09T04:45:16.627Z,92.00
2022-08-09T04:48:01.195Z,91.95
2022-08-09T04:50:33.625Z,92.26
2022-08-09T04:53:11.603Z,92.67
2022-08-09T04:55:57.794Z,92.60
2022-08-09T04:58:25.780Z,92.81
2022-08-09T05:00:52.681Z,92.59
2022-08-09T05:03:40.077Z,92.65
2022-08-09T05:06:10.694Z,92.71
2022-08-09T05:08:38.291Z,92.74
2022-08-09T05:11:06.657Z,92.68
2022-08-09T05:13:38.612Z,92.74
2022-08-09T05:16:08.892Z,93.24
2022-08-09T05:18:57.641Z,92.95
2022-08-09T05:21:24.256Z,93.16
2022-08-09T05:23:58.018Z,93.06
2022-08-09T05:26:36.506Z,93.12
2022-08-09T05:29:17.530Z,93.23
2022-08-09T05:31:46.512Z,93.46
2022-08-09T05:34:16.957Z,92.78
2022-08-09T05:36:47.002Z,92.73
2022-08-09T05:39:28.373Z,92.99
2022-08-09T05:41:55.883Z,92.99
2022-08-09T05:44:28.896Z,92.92
2022-08-09T05:46:59.236Z,92.36
2022-08-09T05:50:24.389Z,92.45
2022-08-09T05:52:14.496Z,91.90
2022-08-09T05:54:42.145Z,91.94
2022-08-09T05:57:12.788Z,91.78
2022-08-09T05:59:43.997Z,91.40
2022-08-09T06:02:11.733Z,91.55
2022-08-09T06:04:44.579Z,90.98
2022-08-09T06:07:21.495Z,90.89
2022-08-09T06:10:01.993Z,90.63
2022-08-09T06:12:29.668Z,90.22
2022-08-09T06:15:00.635Z,89.50
2022-08-09T06:17:39.959Z,89.61
2022-08-09T06:20:08.273Z,88.96
2022-08-09T06:22:35.537Z,88.75
2022-08-09T06:25:02.944Z,88.22
2022-08-09T06:27:42.082Z,88.20
2022-08-09T06:30:14.267Z,88.45
2022-08-09T06:32:59.510Z,87.70
2022-08-09T06:35:56.455Z,86.99
2022-08-09T06:38:15.956Z,86.00
2022-08-09T06:40:43.363Z,85.75
2022-08-09T06:43:10.536Z,85.56
2022-08-09T06:46:06.240Z,84.67
2022-08-09T06:48:30.440Z,83.82
2022-08-09T06:51:01.235Z,83.06
2022-08-09T06:53:33.139Z,82.80
2022-08-09T06:56:06.953Z,82.38
2022-08-09T07:00:48.976Z,82.01
2022-08-09T07:01:21.390Z,81.57
2022-08-09T07:03:52.449Z,81.22
2022-08-09T07:06:21.311Z,81.13
2022-08-09T07:08:52.079Z,80.82
2022-08-09T07:11:23.752Z,80.07
2022-08-09T07:14:05.495Z,79.33
2022-08-09T07:16:42.172Z,79.05
2022-08-09T07:19:18.650Z,78.62
2022-08-09T07:21:55.985Z,78.30
2022-08-09T07:24:32.748Z,77.69
2022-08-09T07:27:11.088Z,77.11
2022-08-09T07:29:56.892Z,76.47
2022-08-09T07:32:33.501Z,76.14
2022-08-09T07:35:11.953Z,75.55
2022-08-09T07:37:43.413Z,75.07
2022-08-09T07:40:17.146Z,74.37
2022-08-09T07:42:54.254Z,74.41
2022-08-09T07:45:39.404Z,74.13
2022-08-09T07:48:29.652Z,73.44
2022-08-09T07:51:09.441Z,73.58
2022-08-09T07:54:04.483Z,72.83
2022-08-09T07:56:31.645Z,72.62
2022-08-09T07:58:59.399Z,70.49
2022-08-09T08:01:34.295Z,70.88
2022-08-09T08:04:02.768Z,69.72
2022-08-09T08:06:31.802Z,69.33
2022-08-09T08:09:04.470Z,68.50
2022-08-09T08:12:11.583Z,67.84
2022-08-09T08:14:18.974Z,67.85
2022-08-09T08:17:00.859Z,68.08
2022-08-09T08:19:34.563Z,65.90
2022-08-09T08:22:01.781Z,66.16
2022-08-09T08:24:34.273Z,66.00
2022-08-09T08:27:17.088Z,65.98
2022-08-09T08:29:50.163Z,65.47
2022-08-09T08:32:28.771Z,64.09
2022-08-09T08:34:58.902Z,63.83
2022-08-09T08:37:42.008Z,63.43
2022-08-09T08:40:14.684Z,62.72
2022-08-09T08:42:47.098Z,62.79
2022-08-09T08:45:16.618Z,61.68
2022-08-09T08:47:45.946Z,61.60
2022-08-09T08:50:18.261Z,61.79
2022-08-09T08:52:59.210Z,60.51
2022-08-09T08:55:27.480Z,59.83
2022-08-09T08:57:58.384Z,59.06
2022-08-09T09:00:34.453Z,58.42
2022-08-09T09:03:11.277Z,58.38
2022-08-09T09:05:59.715Z,57.80
2022-08-09T09:08:37.842Z,57.92
2022-08-09T09:11:08.941Z,57.97
2022-08-09T09:13:56.234Z,57.74
2022-08-09T09:16:32.443Z,56.26
2022-08-09T09:22:11.844Z,56.67
2022-08-09T09:26:03.656Z,56.33
2022-08-09T09:28:05.395Z,55.80
2022-08-09T09:30:40.671Z,55.34
2022-08-09T09:33:16.054Z,54.80
2022-08-09T09:36:02.862Z,55.10
2022-08-09T09:38:56.880Z,54.56
2022-08-09T09:41:24.069Z,54.47
2022-08-09T09:44:11.783Z,54.18
2022-08-09T09:46:45.713Z,54.52
2022-08-09T09:49:32.299Z,53.42
2022-08-09T09:52:16.565Z,52.99
2022-08-09T09:55:27.632Z,52.63
2022-08-09T09:58:17.073Z,52.52
2022-08-09T10:00:53.688Z,52.94
2022-08-09T10:03:42.883Z,52.96
2022-08-09T10:06:11.692Z,52.01
2022-08-09T10:08:54.385Z,51.14
2022-08-09T10:11:53.802Z,49.95
2022-08-09T10:14:47.654Z,50.30
2022-08-09T10:17:40.045Z,51.25
2022-08-09T10:20:27.483Z,50.63
2022-08-09T10:23:10.894Z,49.60
2022-08-09T10:26:06.124Z,49.63
2022-08-09T10:28:30.317Z,49.51
2022-08-09T10:34:10.616Z,49.49
2022-08-09T10:36:31.000Z,49.18
2022-08-09T10:39:00.056Z,48.51
2022-08-09T10:41:27.936Z,49.51
2022-08-09T10:44:01.094Z,49.01
2022-08-09T10:46:57.451Z,48.36
2022-08-09T10:49:51.730Z,47.94
2022-08-09T10:52:30.228Z,48.66
2022-08-09T10:55:02.597Z,47.85
2022-08-09T10:57:36.406Z,48.00
2022-08-09T11:00:34.583Z,47.48
2022-08-09T11:03:27.791Z,47.35
2022-08-09T11:06:18.647Z,46.60
2022-08-09T11:08:51.181Z,46.51
2022-08-09T11:11:21.927Z,46.12
2022-08-09T11:14:28.563Z,45.78
2022-08-09T11:16:57.133Z,45.46
2022-08-09T11:20:12.497Z,44.48
2022-08-09T11:22:55.417Z,44.40
2022-08-09T11:25:45.225Z,44.37
2022-08-09T11:28:53.975Z,45.80
2022-08-09T11:31:49.488Z,45.17
2022-08-09T11:34:27.882Z,45.39
2022-08-09T11:36:55.892Z,45.03
2022-08-09T11:39:24.756Z,45.33
2022-08-09T11:41:54.596Z,44.15
2022-08-09T11:44:44.174Z,44.30
2022-08-09T11:47:14.632Z,44.27
2022-08-09T11:50:56.091Z,43.81
2022-08-09T11:53:16.484Z,42.34
2022-08-09T11:55:52.496Z,42.22
2022-08-09T11:58:32.493Z,41.67
2022-08-09T12:01:15.437Z,41.13
2022-08-09T12:04:00.893Z,39.85
2022-08-09T12:06:32.824Z,39.26
2022-08-09T12:09:15.230Z,39.43
2022-08-09T12:12:02.966Z,39.62
2022-08-09T12:14:40.741Z,40.54
2022-08-09T12:17:27.496Z,39.31
2022-08-09T12:20:12.199Z,38.82
2022-08-09T12:22:44.867Z,39.21
2022-08-09T12:25:16.588Z,39.34
2022-08-09T12:29:14.243Z,39.73
2022-08-09T12:30:36.903Z,39.69
2022-08-09T12:33:06.241Z,40.33
2022-08-09T12:35:41.083Z,41.02
2022-08-09T12:38:38.438Z,40.40
2022-08-09T12:41:07.249Z,41.03
2022-08-09T12:44:05.258Z,40.56
2022-08-09T12:46:24.444Z,41.02
2022-08-09T12:48:53.976Z,40.97
2022-08-09T12:51:52.158Z,40.65
2022-08-09T12:54:08.821Z,41.12
2022-08-09T12:56:48.459Z,41.66
2022-08-09T12:59:20.608Z,41.47
2022-08-09T13:02:09.420Z,41.15
2022-08-09T13:04:38.799Z,41.05
2022-08-09T13:07:13.928Z,41.21
2022-08-09T13:09:43.459Z,42.00
2022-08-09T13:12:22.205Z,41.74
2022-08-09T13:14:53.702Z,41.57
2022-08-09T13:17:44.439Z,41.25
2022-08-09T13:20:14.353Z,39.62
2022-08-09T13:23:02.191Z,40.80
2022-08-09T13:25:54.801Z,40.44
2022-08-09T13:28:34.210Z,40.11
2022-08-09T13:32:13.456Z,39.80
2022-08-09T13:33:56.518Z,40.79
2022-08-09T13:36:42.043Z,40.27
2022-08-09T13:41:17.271Z,40.25
2022-08-09T13:42:05.762Z,40.69
2022-08-09T13:44:40.064Z,39.53
2022-08-09T13:47:28.847Z,39.14
2022-08-09T13:50:01.238Z,38.82
2022-08-09T13:52:29.999Z,37.66
2022-08-09T13:55:00.157Z,37.57
2022-08-09T13:57:39.723Z,37.66
2022-08-09T14:00:13.850Z,37.47
2022-08-09T14:03:02.346Z,37.84
2022-08-09T14:05:58.733Z,37.88
2022-08-09T14:08:21.582Z,37.87
2022-08-09T14:10:52.162Z,37.77
2022-08-09T14:14:14.769Z,37.46
2022-08-09T14:16:16.312Z,37.55
2022-08-09T14:18:50.026Z,38.00
2022-08-09T14:21:23.188Z,38.75
2022-08-09T14:23:56.957Z,38.55
2022-08-09T14:26:32.165Z,38.57
2022-08-09T14:29:08.033Z,38.43
2022-08-09T14:31:54.869Z,38.21
2022-08-09T14:34:27.495Z,38.12
2022-08-09T14:37:06.052Z,37.96
2022-08-09T14:39:45.979Z,38.54
2022-08-09T14:42:30.564Z,37.64
2022-08-09T14:46:39.777Z,37.71
2022-08-09T14:47:58.513Z,37.76
2022-08-09T14:50:31.107Z,37.25
2022-08-09T14:52:58.989Z,38.00
2022-08-09T14:55:25.579Z,37.46
2022-08-09T14:57:56.149Z,38.14
2022-08-09T15:00:24.441Z,38.73
2022-08-09T15:02:53.673Z,38.47
2022-08-09T15:05:20.585Z,38.82
2022-08-09T15:07:54.791Z,39.36
2022-08-09T15:10:24.891Z,38.60
2022-08-09T15:12:52.468Z,38.12
2022-08-09T15:15:20.027Z,37.60
2022-08-09T15:17:51.712Z,37.07
2022-08-09T15:21:55.589Z,37.79
2022-08-09T15:24:09.327Z,37.60
2022-08-09T15:25:55.584Z,37.36
2022-08-09T15:28:28.343Z,37.44
2022-08-09T15:31:10.090Z,38.00
2022-08-09T15:34:17.685Z,37.18
2022-08-09T15:36:29.127Z,36.54
2022-08-09T15:39:00.558Z,34.71
2022-08-09T15:41:31.684Z,32.13
2022-08-09T15:44:02.838Z,29.95
2022-08-09T15:46:34.499Z,28.66
2022-08-09T15:49:22.232Z,27.46
2022-08-09T15:52:04.904Z,26.20
2022-08-09T15:54:49.093Z,25.75
2022-08-09T15:57:19.191Z,24.54
2022-08-09T16:00:25.538Z,24.48
2022-08-09T16:02:54.663Z,22.24
2022-08-09T16:05:22.609Z,20.95
2022-08-09T16:07:50.771Z,20.33
2022-08-09T16:10:54.889Z,19.73
2022-08-09T16:13:20.803Z,20.42
2022-08-09T16:16:11.089Z,18.59
2022-08-09T16:18:44.693Z,18.54
2022-08-09T16:21:17.514Z,17.18
2022-08-09T16:23:55.973Z,17.71
2022-08-09T16:26:33.627Z,17.40
2022-08-09T16:29:12.546Z,17.15
2022-08-09T16:32:20.131Z,16.60
2022-08-09T16:34:29.112Z,16.59
2022-08-09T16:36:56.728Z,16.21
2022-08-09T16:39:25.837Z,16.11
2022-08-09T16:42:03.649Z,15.80
2022-08-09T16:44:35.240Z,15.77
2022-08-09T16:47:03.909Z,15.74
2022-08-09T16:50:29.302Z,15.65
2022-08-09T16:52:35.388Z,15.43
2022-08-09T16:55:02.596Z,15.14
2022-08-09T16:58:08.114Z,15.21
2022-08-09T17:00:16.286Z,15.51
2022-08-09T17:02:43.898Z,15.42
2022-08-09T17:05:14.248Z,15.63
2022-08-09T17:08:46.351Z,15.56
2022-08-09T17:10:33.189Z,15.59
2022-08-09T17:13:01.497Z,15.33
2022-08-09T17:15:30.970Z,15.69
2022-08-09T17:18:10.599Z,15.93
2022-08-09T17:20:46.517Z,16.46
2022-08-09T17:23:19.192Z,17.01
2022-08-09T17:25:53.109Z,16.77
2022-08-09T17:28:20.037Z,17.37
2022-08-09T17:30:47.994Z,17.03
2022-08-09T17:33:22.778Z,16.77
2022-08-09T17:35:49.869Z,17.53
2022-08-09T17:38:31.991Z,18.41
2022-08-09T17:41:02.234Z,19.13
2022-08-09T17:43:34.291Z,19.67
2022-08-09T17:46:09.627Z,20.02
2022-08-09T17:48:39.813Z,20.52
2022-08-09T17:51:17.313Z,20.76
2022-08-09T17:53:51.467Z,21.54
2022-08-09T17:56:20.298Z,22.62
2022-08-09T17:58:47.186Z,23.67
2022-08-09T18:01:22.251Z,24.48
2022-08-09T18:03:50.541Z,25.17
2022-08-09T18:06:30.866Z,26.18
2022-08-09T18:08:58.280Z,27.04
2022-08-09T18:11:25.516Z,27.98
2022-08-09T18:13:58.839Z,28.45
2022-08-09T18:16:30.859Z,28.86
2022-08-09T18:18:59.367Z,29.86
2022-08-09T18:21:40.961Z,30.26
2022-08-09T18:24:14.327Z,30.90
2022-08-09T18:26:46.763Z,31.25
2022-08-09T18:30:40.620Z,31.86
2022-08-09T18:32:05.229Z,31.93
2022-08-09T18:34:35.158Z,32.46
2022-08-09T18:37:10.165Z,33.01
2022-08-09T18:39:53.562Z,33.20
2022-08-09T18:42:21.201Z,33.28
2022-08-09T18:44:55.941Z,34.10
2022-08-09T18:47:27.628Z,34.42
2022-08-09T18:49:59.893Z,34.75
2022-08-09T18:52:34.892Z,34.92
2022-08-09T18:55:02.806Z,35.32
2022-08-09T18:57:38.378Z,35.61
2022-08-09T19:00:11.208Z,35.61
2022-08-09T19:02:43.477Z,36.12
2022-08-09T19:05:20.507Z,36.40
2022-08-09T19:08:04.443Z,36.85
2022-08-09T19:10:39.271Z,36.98
2022-08-09T19:13:22.953Z,37.21
2022-08-09T19:15:58.876Z,37.78
2022-08-09T19:18:33.265Z,38.35
2022-08-09T19:21:09.270Z,38.79
2022-08-09T19:24:39.669Z,38.94
2022-08-09T19:26:31.014Z,39.47
2022-08-09T19:29:01.659Z,39.79
2022-08-09T19:31:30.743Z,39.75
2022-08-09T19:34:21.285Z,40.15
2022-08-09T19:36:50.409Z,40.35
2022-08-09T19:39:17.347Z,40.51
2022-08-09T19:41:48.573Z,41.19
2022-08-09T19:44:17.769Z,41.35
2022-08-09T19:46:50.668Z,41.71
2022-08-09T19:50:08.670Z,42.07
2022-08-09T19:52:08.356Z,42.23
2022-08-09T19:54:34.953Z,42.71
2022-08-09T19:57:03.577Z,43.20
2022-08-09T19:59:57.357Z,43.49
2022-08-09T20:04:09.595Z,43.85
2022-08-09T20:05:10.359Z,44.08
2022-08-09T20:07:58.742Z,44.53
2022-08-09T20:10:34.537Z,44.71
2022-08-09T20:13:05.671Z,45.16
2022-08-09T20:16:34.930Z,45.38
2022-08-09T20:18:22.417Z,45.75
2022-08-09T20:20:51.077Z,46.04
2022-08-09T20:23:19.466Z,46.09
2022-08-09T20:25:52.403Z,46.15
2022-08-09T20:28:27.878Z,46.51
2022-08-09T20:31:02.632Z,46.44
2022-08-09T20:33:40.978Z,46.61
2022-08-09T20:36:11.133Z,46.87
2022-08-09T20:39:17.087Z,46.97
2022-08-09T20:41:32.203Z,47.81
2022-08-09T20:44:02.834Z,47.61
2022-08-09T20:46:33.865Z,47.73
2022-08-09T20:49:10.345Z,48.29
2022-08-09T20:51:41.663Z,48.64
2022-08-09T20:54:12.547Z,48.88
2022-08-09T20:56:41.039Z,49.37
2022-08-09T20:59:07.891Z,49.64
2022-08-09T21:01:50.798Z,49.80
2022-08-09T21:05:53.957Z,50.01
2022-08-09T21:07:11.982Z,50.13
2022-08-09T21:09:45.603Z,50.49
2022-08-09T21:12:23.536Z,51.07
2022-08-09T21:14:59.198Z,51.24
2022-08-09T21:18:29.851Z,51.29
2022-08-09T21:20:22.857Z,51.69
2022-08-09T21:22:54.267Z,51.70
2022-08-09T21:25:43.748Z,51.98
2022-08-09T21:28:12.203Z,52.40
2022-08-09T21:30:42.577Z,52.86
2022-08-09T21:33:09.938Z,53.43
2022-08-09T21:35:40.741Z,53.72
2022-08-09T21:38:30.772Z,54.25
2022-08-09T21:40:58.980Z,54.64
2022-08-09T21:43:57.199Z,55.11
2022-08-09T21:46:12.765Z,55.57
2022-08-09T21:48:42.707Z,55.79
2022-08-09T21:51:24.097Z,56.28
2022-08-09T21:54:02.751Z,56.57
2022-08-09T21:56:43.055Z,57.05
2022-08-09T21:59:16.439Z,57.61
2022-08-09T22:01:58.874Z,57.83
2022-08-09T22:04:55.437Z,58.22
2022-08-09T22:07:14.331Z,58.69
2022-08-09T22:09:50.578Z,58.92
2022-08-09T22:12:24.505Z,59.18
2022-08-09T22:15:01.525Z,59.53
2022-08-09T22:17:31.789Z,59.84
2022-08-09T22:20:00.612Z,60.28
2022-08-09T22:22:30.388Z,60.42
2022-08-09T22:26:06.971Z,60.44
2022-08-09T22:27:47.511Z,60.99
2022-08-09T22:30:15.306Z,61.59
2022-08-09T22:32:53.077Z,61.52
2022-08-09T22:36:01.109Z,61.92
2022-08-09T22:38:07.520Z,62.43
2022-08-09T22:40:35.381Z,62.58
2022-08-09T22:43:08.497Z,62.61
2022-08-09T22:48:11.604Z,63.11
2022-08-09T22:48:35.058Z,63.23
2022-08-09T22:51:10.715Z,63.68
2022-08-09T22:53:58.523Z,63.82
2022-08-09T22:56:33.267Z,64.04
2022-08-09T22:59:56.157Z,64.51
2022-08-09T23:01:52.685Z,64.69
2022-08-09T23:04:19.618Z,64.89
2022-08-09T23:07:11.254Z,65.30
2022-08-09T23:09:40.582Z,65.52
2022-08-09T23:12:07.641Z,65.68
2022-08-09T23:14:41.750Z,66.25
2022-08-09T23:17:11.068Z,66.09
2022-08-09T23:20:06.715Z,66.71
2022-08-09T23:22:24.348Z,66.90
2022-08-09T23:24:51.015Z,67.04
2022-08-09T23:27:17.622Z,67.49
2022-08-09T23:29:44.345Z,67.69
2022-08-09T23:32:12.376Z,67.98
2022-08-09T23:34:38.860Z,68.02
2022-08-09T23:37:06.228Z,68.35
2022-08-09T23:39:32.963Z,68.72
2022-08-09T23:41:59.679Z,68.85
2022-08-09T23:44:26.416Z,68.98
2022-08-09T23:46:57.832Z,69.01
2022-08-09T23:49:25.840Z,69.51
2022-08-09T23:51:53.462Z,69.59
2022-08-09T23:54:20.816Z,69.81
2022-08-09T23:56:53.692Z,70.13
2022-08-09T23:59:23.141Z,70.53
